map of EJA home
EJA - Airport
Location
City:  Barrancabermeja, Santander, Colombia
Name:Yariguíes Airport
ICAO:SKEJ
IATA:EJA

Details
Type:Airport (Aerodrome, Airfield)
Latitude:7°01'28"N (7.024331)
Longitude:73°48'24"W (-73.806799)
Datum:WGS 1984
Elevation:412 ft (126 m)
Variation:7.82°W (WMM2015 magnetic declination)
-0.14° annual change
Runways:1
Longest:5905 × 148 ft (1800 × 45 m), paved

Time
Time Zone:UTC-5
Local Time:

Weather
METAR:SKEJ 131800Z VRB02KT 9999 SCT015 SCT100 29/24 A2986

Related Locations
Nearby:
Farthest:WICJ: 12387 mi / 19935 km
Bogor [Atang Sanjaya AB], JB, ID

Find:

   beyond  
but within

Other Information
Maps:
NOTAMs:
Links:
Sources:

  
flag of Colombia
flag of Santander
  

Sectional Chart

Flight Planning
at skyvector.com

Satellite Image

Google Maps Satellite view

 

Copyright © 2004-2017 Karl L. Swartz. All rights reserved.
The Great Circle Mapper name and logo are trademarks of the Great Circle Mapper.
All other trademarks mentioned herein belong to their respective owners.
Please see credits for attibutions and further copyright information.

  Follow gcmap on Facebook Follow gcmap on Twitter Follow gcmap on Google+ GCmap on LinkedIn

hCard Microformat

Geo Microformat